Time;durP1;ratioP1;P1;durP2;ratioP2;P2;SDS_P1;SDS_P2;PMS_P1;PMS_P2;Temp;Humidity;BMP_temperature;BMP_pressure;BME280_temperature;BME280_humidity;BME280_pressure;Samples;Min_cycle;Max_cycle;Signal;HPM_P1;HPM_P2
2022/10/14 00:00:37;;;;;;;1.30;1.30;;;;;;;12.62;100.00;100395.88;5014295;28;20592;-73
2022/10/14 00:03:02;;;;;;;0.40;0.40;;;;;;;12.65;100.00;100392.50;5013631;28;20483;-74
2022/10/14 00:05:28;;;;;;;0.53;0.53;;;;;;;12.67;100.00;100391.03;5013567;28;20188;-73
2022/10/14 00:07:53;;;;;;;0.33;0.33;;;;;;;12.68;100.00;100392.63;5013451;28;20172;-73
2022/10/14 00:10:18;;;;;;;2.70;2.50;;;;;;;12.68;100.00;100386.34;5013851;28;20537;-74
2022/10/14 00:12:44;;;;;;;0.10;0.10;;;;;;;12.68;100.00;100383.59;5013670;28;20558;-73
2022/10/14 00:15:09;;;;;;;1.60;1.50;;;;;;;12.69;100.00;100382.47;5013940;28;20200;-73
2022/10/14 00:17:35;;;;;;;1.23;0.93;;;;;;;12.69;100.00;100377.78;5013171;28;20629;-73
2022/10/14 00:20:00;;;;;;;0.00;0.00;;;;;;;12.70;100.00;100386.81;5013302;28;20686;-71
2022/10/14 00:22:26;;;;;;;0.00;0.00;;;;;;;12.66;100.00;100383.13;5013736;28;20176;-72
2022/10/14 00:24:51;;;;;;;4.23;1.97;;;;;;;12.69;100.00;100377.00;5013414;28;20173;-72
2022/10/14 00:27:17;;;;;;;1.40;1.30;;;;;;;12.72;100.00;100379.06;5012006;28;20195;-72
2022/10/14 00:29:42;;;;;;;2.33;2.23;;;;;;;12.67;100.00;100376.50;5013301;28;20280;-72
2022/10/14 00:32:07;;;;;;;7.87;2.27;;;;;;;12.66;100.00;100374.91;5013307;28;20176;-72
2022/10/14 00:34:33;;;;;;;3.27;3.10;;;;;;;12.62;100.00;100371.22;5013145;28;20180;-72
2022/10/14 00:36:58;;;;;;;0.00;0.00;;;;;;;12.60;100.00;100371.56;5013086;28;20181;-72
2022/10/14 00:39:23;;;;;;;15.93;3.47;;;;;;;12.58;100.00;100364.75;5013477;28;20223;-72
2022/10/14 00:41:49;;;;;;;3.70;3.20;;;;;;;12.57;100.00;100366.69;5012932;28;20659;-72
2022/10/14 00:44:14;;;;;;;0.00;0.00;;;;;;;12.56;100.00;100364.28;5013159;28;20192;-72
2022/10/14 00:46:45;;;;;;;0.00;0.00;;;;;;;12.58;100.00;100373.78;5012639;28;20176;-73
2022/10/14 00:49:26;;;;;;;2.00;1.90;;;;;;;12.54;100.00;100370.09;5013306;28;20181;-72
2022/10/14 00:52:06;;;;;;;2.47;2.37;;;;;;;12.50;100.00;100372.69;5013044;28;20177;-72
2022/10/14 00:54:36;;;;;;;4.23;1.43;;;;;;;12.48;100.00;100366.75;5013010;28;20309;-72
2022/10/14 00:57:02;;;;;;;0.73;0.73;;;;;;;12.49;100.00;100371.09;5012574;28;20187;-72
2022/10/14 00:59:28;;;;;;;0.00;0.00;;;;;;;12.50;100.00;100369.16;5013013;28;20502;-72
2022/10/14 01:01:53;;;;;;;1.73;1.73;;;;;;;12.47;100.00;100364.31;5012805;28;20173;-73
2022/10/14 01:04:19;;;;;;;3.33;3.03;;;;;;;12.43;100.00;100366.88;5012579;28;20188;-73
2022/10/14 01:07:09;;;;;;;0.93;0.93;;;;;;;12.40;100.00;100356.59;5012588;28;20173;-72
2022/10/14 01:10:01;;;;;;;1.00;0.73;;;;;;;12.36;100.00;100358.38;5013228;28;20168;-72
2022/10/14 01:12:35;;;;;;;6.33;2.57;;;;;;;12.34;100.00;100357.09;5012825;28;20797;-72
2022/10/14 01:15:30;;;;;;;5.40;4.90;;;;;;;12.30;100.00;100361.63;5012696;28;20649;-72
2022/10/14 01:18:06;;;;;;;1.73;1.63;;;;;;;12.28;100.00;100353.69;5012248;28;20644;-72
2022/10/14 01:20:53;;;;;;;1.50;1.50;;;;;;;12.26;100.00;100352.41;5012441;28;20306;-72
2022/10/14 01:24:14;;;;;;;2.57;2.47;;;;;;;12.26;100.00;100350.47;5012575;28;20196;-72
2022/10/14 01:26:39;;;;;;;2.73;2.60;;;;;;;12.24;100.00;100339.06;4956626;28;20681;-72
2022/10/14 01:29:30;;;;;;;3.80;3.47;;;;;;;12.24;100.00;100344.53;5009254;28;20224;-72
2022/10/14 01:32:09;;;;;;;5.17;4.60;;;;;;;12.24;100.00;100343.72;5011039;28;20830;-73
2022/10/14 01:34:43;;;;;;;4.30;4.00;;;;;;;12.25;100.00;100346.13;5012132;28;20192;-72
2022/10/14 01:37:15;;;;;;;6.23;5.03;;;;;;;12.26;100.00;100344.19;5011883;28;20176;-71
2022/10/14 01:39:53;;;;;;;3.43;3.23;;;;;;;12.28;100.00;100337.25;5012505;28;20211;-72
2022/10/14 01:42:27;;;;;;;4.07;3.60;;;;;;;12.30;100.00;100342.44;5011950;28;20770;-72
2022/10/14 01:45:04;;;;;;;6.07;4.60;;;;;;;12.29;100.00;100336.13;5012220;28;20271;-72
2022/10/14 01:47:33;;;;;;;7.87;4.50;;;;;;;12.32;100.00;100340.19;5011673;28;20179;-72
2022/10/14 01:50:05;;;;;;;2.87;2.60;;;;;;;12.34;100.00;100340.66;5012355;28;20244;-72
2022/10/14 01:52:37;;;;;;;6.13;4.47;;;;;;;12.34;100.00;100335.19;5012378;28;20258;-73
2022/10/14 01:55:08;;;;;;;17.50;5.77;;;;;;;12.36;100.00;100330.97;5012031;28;20181;-73
2022/10/14 01:57:36;;;;;;;2.53;2.33;;;;;;;12.36;100.00;100336.47;5011298;28;20179;-73
2022/10/14 02:00:04;;;;;;;4.37;3.97;;;;;;;12.38;100.00;100336.13;5011609;28;20208;-73
2022/10/14 02:02:29;;;;;;;0.57;0.57;;;;;;;12.41;100.00;100332.72;5011490;28;20227;-73
2022/10/14 02:04:54;;;;;;;2.30;2.20;;;;;;;12.42;100.00;100326.91;5011296;28;20196;-73
2022/10/14 02:07:28;;;;;;;0.13;0.13;;;;;;;12.44;100.00;100332.91;5011453;28;20176;-73
2022/10/14 02:10:06;;;;;;;0.43;0.43;;;;;;;12.46;100.00;100329.84;5011893;28;20468;-73
2022/10/14 02:12:37;;;;;;;2.00;1.57;;;;;;;12.48;100.00;100327.56;5011500;28;20176;-73
2022/10/14 02:15:12;;;;;;;0.00;0.00;;;;;;;12.48;100.00;100328.38;5011602;28;20177;-73
2022/10/14 02:17:49;;;;;;;4.23;2.00;;;;;;;12.51;100.00;100321.44;5011136;28;20259;-73
2022/10/14 02:20:19;;;;;;;0.03;0.03;;;;;;;12.51;100.00;100329.66;5015395;28;20208;-72
2022/10/14 02:22:53;;;;;;;10.80;5.40;;;;;;;12.48;100.00;100330.31;5031032;28;20195;-73
2022/10/14 02:25:25;;;;;;;2.07;1.60;;;;;;;12.48;100.00;100325.63;5030844;28;20195;-72
2022/10/14 02:27:52;;;;;;;1.07;1.07;;;;;;;12.46;100.00;100322.41;5030762;28;20706;-72
2022/10/14 02:30:20;;;;;;;7.13;1.23;;;;;;;12.48;100.00;100330.31;5030707;28;20176;-73
2022/10/14 02:32:46;;;;;;;0.00;0.00;;;;;;;12.45;100.00;100329.03;5030850;28;20203;-72
2022/10/14 02:35:16;;;;;;;0.00;0.00;;;;;;;12.50;100.00;100326.09;5018743;28;20565;-72
2022/10/14 02:37:45;;;;;;;3.87;1.70;;;;;;;12.53;100.00;100324.63;5011989;28;20191;-72
2022/10/14 02:40:16;;;;;;;0.00;0.00;;;;;;;12.57;100.00;100320.09;5011135;28;20204;-73
2022/10/14 02:42:41;;;;;;;0.00;0.00;;;;;;;12.59;100.00;100308.84;5019375;28;20192;-73
2022/10/14 02:45:09;;;;;;;0.00;0.00;;;;;;;12.58;100.00;100316.22;5031176;28;20168;-72
2022/10/14 02:47:34;;;;;;;33.10;2.80;;;;;;;12.61;100.00;100314.78;5030654;28;20267;-72
2022/10/14 02:50:00;;;;;;;0.00;0.00;;;;;;;12.63;100.00;100307.84;5030389;28;20342;-73
2022/10/14 02:52:25;;;;;;;0.00;0.00;;;;;;;12.55;100.00;100321.56;5030922;28;20660;-73
2022/10/14 02:54:50;;;;;;;1.40;1.30;;;;;;;12.62;100.00;100310.91;5030763;28;20647;-73
2022/10/14 02:57:16;;;;;;;0.17;0.17;;;;;;;12.63;100.00;100307.03;5030886;28;20172;-72
2022/10/14 02:59:41;;;;;;;0.67;0.67;;;;;;;12.65;100.00;100310.25;5030906;28;20239;-73
2022/10/14 03:02:07;;;;;;;0.77;0.77;;;;;;;12.65;100.00;100308.31;5030774;28;20180;-73
2022/10/14 03:04:33;;;;;;;0.83;0.83;;;;;;;12.64;100.00;100311.38;5023959;28;20295;-73
2022/10/14 03:06:58;;;;;;;1.10;1.10;;;;;;;12.60;100.00;100300.28;5011025;28;20181;-73
2022/10/14 03:09:23;;;;;;;1.10;1.10;;;;;;;12.60;100.00;100297.53;5009678;28;20493;-72
2022/10/14 03:11:49;;;;;;;2.30;2.20;;;;;;;12.59;100.00;100297.88;5011028;28;20212;-73
2022/10/14 03:14:14;;;;;;;19.43;1.73;;;;;;;12.57;100.00;100297.38;5026164;28;20633;-73
2022/10/14 03:16:39;;;;;;;1.43;1.33;;;;;;;12.52;100.00;100290.94;5010730;28;20204;-73
2022/10/14 03:19:05;;;;;;;1.77;1.70;;;;;;;12.53;100.00;100308.19;5010936;28;20192;-73
2022/10/14 03:21:30;;;;;;;0.13;0.13;;;;;;;12.52;100.00;100303.84;5010967;28;20176;-72
2022/10/14 03:23:56;;;;;;;2.17;2.13;;;;;;;12.54;100.00;100311.75;5010897;28;20165;-72
2022/10/14 03:26:22;;;;;;;1.07;1.07;;;;;;;12.57;100.00;100303.66;5011026;28;20263;-73
2022/10/14 03:28:48;;;;;;;1.40;1.40;;;;;;;12.57;100.00;100300.91;5010886;28;20225;-73
2022/10/14 03:31:13;;;;;;;0.00;0.00;;;;;;;12.58;100.00;100301.72;5010982;28;20184;-73
2022/10/14 03:33:38;;;;;;;2.10;0.87;;;;;;;12.62;100.00;100300.75;5010981;28;20263;-73
2022/10/14 03:36:03;;;;;;;0.10;0.10;;;;;;;12.62;100.00;100306.25;5010555;28;20336;-72
2022/10/14 03:38:29;;;;;;;0.00;0.00;;;;;;;12.66;100.00;100300.91;5010637;28;20656;-72
2022/10/14 03:40:54;;;;;;;0.43;0.43;;;;;;;12.66;100.00;100300.91;5010498;28;20169;-73
2022/10/14 03:43:19;;;;;;;0.30;0.30;;;;;;;12.69;100.00;100305.72;5010807;28;20181;-73
2022/10/14 03:45:45;;;;;;;0.00;0.00;;;;;;;12.63;100.00;100298.81;5010639;28;20541;-73
2022/10/14 03:48:10;;;;;;;4.13;4.03;;;;;;;12.65;100.00;100299.28;5010644;28;20196;-72
2022/10/14 03:50:35;;;;;;;0.97;0.90;;;;;;;12.67;100.00;100297.03;5010586;28;20188;-73
2022/10/14 03:53:01;;;;;;;2.63;1.90;;;;;;;12.65;100.00;100294.63;5010566;28;20743;-73
2022/10/14 03:55:26;;;;;;;8.30;3.30;;;;;;;12.61;100.00;100296.41;5010573;28;20184;-73
2022/10/14 03:57:51;;;;;;;0.53;0.53;;;;;;;12.61;100.00;100290.13;5010600;28;20241;-73
2022/10/14 04:00:17;;;;;;;0.00;0.00;;;;;;;12.63;100.00;100290.59;5010941;28;20225;-73
2022/10/14 04:02:42;;;;;;;0.00;0.00;;;;;;;12.64;100.00;100284.78;5014122;28;20181;-73
2022/10/14 04:05:08;;;;;;;4.13;2.83;;;;;;;12.57;100.00;100287.22;5014170;28;20362;-73
2022/10/14 04:07:34;;;;;;;3.33;3.03;;;;;;;12.62;100.00;100286.25;5013987;28;20177;-73
2022/10/14 04:09:59;;;;;;;0.30;0.30;;;;;;;12.63;100.00;100285.13;5014323;28;20205;-73
2022/10/14 04:12:24;;;;;;;0.00;0.00;;;;;;;12.64;100.00;100271.09;5027512;28;20662;-74
2022/10/14 04:14:49;;;;;;;0.00;0.00;;;;;;;12.58;100.00;100268.84;5033806;28;20628;-73
2022/10/14 04:17:15;;;;;;;5.33;2.10;;;;;;;12.62;100.00;100278.84;5033524;28;20172;-73
2022/10/14 04:19:40;;;;;;;2.00;2.00;;;;;;;12.63;100.00;100276.91;5033687;28;20204;-73
2022/10/14 04:22:05;;;;;;;2.60;2.43;;;;;;;12.61;100.00;100288.19;5033557;28;20180;-74
2022/10/14 04:24:31;;;;;;;0.50;0.50;;;;;;;12.60;100.00;100283.84;5033608;28;20637;-73
2022/10/14 04:26:56;;;;;;;3.13;2.90;;;;;;;12.60;100.00;100283.03;5033524;28;20179;-73
2022/10/14 04:29:21;;;;;;;1.23;1.23;;;;;;;12.56;100.00;100274.66;5033564;28;20586;-73
2022/10/14 04:31:46;;;;;;;0.77;0.77;;;;;;;12.56;100.00;100285.63;5033514;28;20176;-73
2022/10/14 04:34:12;;;;;;;0.20;0.20;;;;;;;12.54;100.00;100282.41;5033440;28;20585;-73
2022/10/14 04:36:37;;;;;;;1.90;1.80;;;;;;;12.52;100.00;100288.22;5033178;28;20203;-73
2022/10/14 04:39:03;;;;;;;1.73;1.63;;;;;;;12.54;100.00;100287.06;5033372;28;20234;-73
2022/10/14 04:41:28;;;;;;;1.40;1.40;;;;;;;12.53;100.00;100286.28;5033013;28;20172;-74
2022/10/14 04:43:53;;;;;;;0.63;0.63;;;;;;;12.55;100.00;100288.69;5033256;28;20234;-74
2022/10/14 04:46:19;;;;;;;0.00;0.00;;;;;;;12.54;100.00;100289.81;5032995;28;20241;-73
2022/10/14 04:48:46;;;;;;;2.20;2.10;;;;;;;12.52;100.00;100290.94;5033007;28;20180;-73
2022/10/14 04:51:11;;;;;;;0.67;0.67;;;;;;;12.53;100.00;100297.25;5033019;28;20632;-73
2022/10/14 04:53:37;;;;;;;2.03;1.93;;;;;;;12.50;100.00;100292.41;5033100;28;20179;-73
2022/10/14 04:56:02;;;;;;;1.07;1.07;;;;;;;12.50;100.00;100290.47;5032830;28;20176;-73
2022/10/14 04:58:30;;;;;;;1.20;1.20;;;;;;;12.50;100.00;100287.75;5032902;28;20180;-73
2022/10/14 05:00:55;;;;;;;5.50;2.40;;;;;;;12.49;100.00;100291.63;5032887;28;20222;-73
2022/10/14 05:03:21;;;;;;;2.23;2.13;;;;;;;12.48;100.00;100283.72;5014972;28;20199;-72
2022/10/14 05:05:46;;;;;;;0.00;0.00;;;;;;;12.50;100.00;100281.47;5032676;28;20759;-73
2022/10/14 05:08:11;;;;;;;2.63;1.07;;;;;;;12.49;100.00;100277.13;5033136;28;20203;-73
2022/10/14 05:10:37;;;;;;;0.03;0.03;;;;;;;12.53;100.00;100275.31;5032856;28;20253;-74
2022/10/14 05:13:02;;;;;;;0.20;0.20;;;;;;;12.55;100.00;100264.03;5032284;28;20187;-73
2022/10/14 05:15:28;;;;;;;0.20;0.20;;;;;;;12.54;100.00;100265.16;5031324;28;20545;-73
2022/10/14 05:17:53;;;;;;;0.63;0.63;;;;;;;12.56;100.00;100260.16;5032380;28;20232;-75
2022/10/14 05:20:19;;;;;;;0.50;0.50;;;;;;;12.47;100.00;100255.53;5032414;28;20236;-75
2022/10/14 05:22:44;;;;;;;0.17;0.17;;;;;;;12.42;100.00;100249.41;5032516;28;20179;-73
2022/10/14 05:25:10;;;;;;;3.30;2.37;;;;;;;12.33;100.00;100254.94;5032609;28;20176;-74
2022/10/14 05:27:35;;;;;;;0.17;0.17;;;;;;;12.25;100.00;100246.72;5032428;28;20652;-74
2022/10/14 05:30:01;;;;;;;5.80;5.30;;;;;;;12.08;100.00;100253.88;5032721;28;20237;-73
2022/10/14 05:32:26;;;;;;;2.63;1.40;;;;;;;12.04;100.00;100252.13;5032276;28;20636;-74
2022/10/14 05:34:52;;;;;;;2.57;2.40;;;;;;;11.94;100.00;100257.91;5032240;28;20172;-73
2022/10/14 05:37:17;;;;;;;8.00;4.10;;;;;;;11.86;100.00;100263.09;5032119;28;20203;-73
2022/10/14 05:39:43;;;;;;;1.20;0.87;;;;;;;11.85;100.00;100255.19;5030936;28;20217;-73
2022/10/14 05:42:09;;;;;;;0.53;0.50;;;;;;;11.82;100.00;100267.59;5032001;28;20206;-73
2022/10/14 05:44:34;;;;;;;0.00;0.00;;;;;;;11.79;100.00;100262.78;5030936;28;20203;-71
2022/10/14 05:47:00;;;;;;;1.40;1.40;;;;;;;11.80;100.00;100258.91;5031937;28;20211;-72
2022/10/14 05:49:25;;;;;;;5.03;4.67;;;;;;;11.79;100.00;100259.22;5032039;28;20229;-71
2022/10/14 05:51:50;;;;;;;2.17;2.07;;;;;;;11.85;100.00;100258.72;5031999;28;20176;-71
2022/10/14 05:54:16;;;;;;;9.53;3.57;;;;;;;11.89;100.00;100261.66;5032241;28;20177;-70
2022/10/14 05:56:41;;;;;;;0.00;0.00;;;;;;;11.96;100.00;100255.66;5031857;28;20746;-71
2022/10/14 05:59:08;;;;;;;0.00;0.00;;;;;;;11.98;100.00;100258.88;5031810;28;20622;-70
2022/10/14 06:01:35;;;;;;;0.20;0.20;;;;;;;12.02;100.00;100255.19;5032037;28;20180;-71
2022/10/14 06:04:00;;;;;;;1.60;1.60;;;;;;;12.06;100.00;100258.88;5031315;28;20216;-70
2022/10/14 06:06:26;;;;;;;1.70;1.60;;;;;;;12.08;100.00;100262.06;5031489;28;20273;-72
2022/10/14 06:08:53;;;;;;;1.60;0.53;;;;;;;12.13;100.00;100270.13;5031719;28;20261;-71
2022/10/14 06:11:19;;;;;;;0.70;0.70;;;;;;;12.18;100.00;100264.47;5013904;28;20583;-71
2022/10/14 06:13:44;;;;;;;0.00;0.00;;;;;;;12.17;100.00;100259.34;5031489;28;20187;-70
2022/10/14 06:16:10;;;;;;;2.70;1.57;;;;;;;12.23;100.00;100263.50;5031222;28;20259;-71
2022/10/14 06:18:36;;;;;;;0.07;0.07;;;;;;;12.27;100.00;100272.66;5028396;28;20200;-71
2022/10/14 06:21:05;;;;;;;1.33;1.33;;;;;;;12.34;100.00;100264.75;5020957;28;20187;-71
2022/10/14 06:23:30;;;;;;;0.10;0.10;;;;;;;12.39;100.00;100264.56;4991864;28;20385;-71
2022/10/14 06:25:56;;;;;;;0.00;0.00;;;;;;;12.37;100.00;100277.78;4991202;28;20600;-71
2022/10/14 06:28:21;;;;;;;0.00;0.00;;;;;;;12.37;100.00;100264.09;4991859;28;20578;-71
2022/10/14 06:30:53;;;;;;;0.00;0.00;;;;;;;12.34;100.00;100267.50;4992036;28;20185;-71
2022/10/14 06:33:20;;;;;;;0.63;0.63;;;;;;;12.46;100.00;100275.03;4992097;28;20608;-71
2022/10/14 06:35:46;;;;;;;0.00;0.00;;;;;;;12.37;100.00;100272.31;5000180;28;20180;-71
2022/10/14 06:38:11;;;;;;;0.30;0.30;;;;;;;12.52;100.00;100269.03;5020601;28;20198;-71
2022/10/14 06:40:37;;;;;;;0.10;0.10;;;;;;;12.59;100.00;100262.25;5027228;28;20270;-72
2022/10/14 06:43:02;;;;;;;1.60;1.50;;;;;;;12.60;100.00;100264.66;5031102;28;20171;-71
2022/10/14 06:45:27;;;;;;;0.93;0.93;;;;;;;12.63;100.00;100272.22;5030776;28;20172;-71
2022/10/14 06:47:53;;;;;;;0.00;0.00;;;;;;;12.64;100.00;100268.34;5030540;28;20176;-72
2022/10/14 06:50:18;;;;;;;0.00;0.00;;;;;;;12.63;100.00;100266.72;5030796;28;20187;-71
2022/10/14 06:52:44;;;;;;;0.00;0.00;;;;;;;12.67;100.00;100262.19;5030797;28;20179;-70
2022/10/14 06:55:10;;;;;;;0.07;0.07;;;;;;;12.54;100.00;100257.75;5031278;28;20661;-73
2022/10/14 06:57:35;;;;;;;0.00;0.00;;;;;;;12.61;100.00;100265.47;5030596;28;20222;-74
2022/10/14 07:00:01;;;;;;;0.00;0.00;;;;;;;12.67;100.00;100261.41;5030772;28;20571;-71
2022/10/14 07:02:26;;;;;;;0.00;0.00;;;;;;;12.65;100.00;100261.72;5029432;28;20262;-72
2022/10/14 07:04:51;;;;;;;0.00;0.00;;;;;;;12.73;100.00;100263.63;5030773;28;20191;-71
2022/10/14 07:07:17;;;;;;;0.00;0.00;;;;;;;12.80;100.00;100269.38;5030411;28;20179;-71
2022/10/14 07:09:42;;;;;;;0.00;0.00;;;;;;;12.84;100.00;100272.25;5030573;28;20187;-74
2022/10/14 07:12:07;;;;;;;0.00;0.00;;;;;;;12.81;100.00;100271.00;5030533;28;20186;-75
2022/10/14 07:14:32;;;;;;;1.57;1.50;;;;;;;12.87;100.00;100271.59;5030802;28;20180;-75
2022/10/14 07:16:59;;;;;;;0.20;0.20;;;;;;;12.93;100.00;100273.03;5030451;28;20262;-73
2022/10/14 07:19:24;;;;;;;0.00;0.00;;;;;;;12.90;100.00;100273.69;5030658;28;20553;-74
2022/10/14 07:21:49;;;;;;;1.57;1.47;;;;;;;12.91;100.00;100280.78;5030475;28;20183;-74
2022/10/14 07:24:15;;;;;;;0.00;0.00;;;;;;;12.91;100.00;100278.06;5030724;28;20180;-74
2022/10/14 07:26:40;;;;;;;4.10;1.10;;;;;;;12.93;100.00;100273.03;5030461;28;20172;-73
2022/10/14 07:29:06;;;;;;;0.30;0.30;;;;;;;12.99;100.00;100276.38;5030511;28;20518;-74
2022/10/14 07:31:33;;;;;;;0.00;0.00;;;;;;;12.94;100.00;100274.63;5030838;28;20231;-74
2022/10/14 07:34:00;;;;;;;0.00;0.00;;;;;;;12.95;100.00;100279.00;5012743;28;20192;-74
2022/10/14 07:36:25;;;;;;;0.00;0.00;;;;;;;12.97;100.00;100276.72;5032337;28;20204;-74
2022/10/14 07:38:50;;;;;;;0.00;0.00;;;;;;;12.99;100.00;100268.94;5034441;28;20286;-73
2022/10/14 07:41:19;;;;;;;0.00;0.00;;;;;;;13.10;100.00;100263.91;5034183;28;20179;-74
2022/10/14 07:43:47;;;;;;;0.00;0.00;;;;;;;13.15;100.00;100263.69;5034335;28;20171;-73
2022/10/14 07:46:13;;;;;;;0.00;0.00;;;;;;;13.21;100.00;100261.59;5034155;28;20172;-73
2022/10/14 07:48:39;;;;;;;4.73;2.30;;;;;;;13.22;100.00;100261.28;5034055;28;20168;-73
2022/10/14 07:51:06;;;;;;;0.00;0.00;;;;;;;13.33;100.00;100269.91;5018688;28;20567;-74
2022/10/14 07:53:31;;;;;;;0.47;0.47;;;;;;;13.37;100.00;100268.09;5015591;28;20185;-73
2022/10/14 07:56:01;;;;;;;3.80;0.87;;;;;;;13.35;100.00;100276.66;5012645;28;20198;-72
2022/10/14 07:58:29;;;;;;;0.47;0.47;;;;;;;13.38;100.00;100273.25;5016823;28;20733;-73
2022/10/14 08:00:55;;;;;;;2.97;2.57;;;;;;;13.34;100.00;100280.56;5011800;28;20185;-73
2022/10/14 08:03:22;;;;;;;3.23;2.97;;;;;;;13.30;100.00;100279.59;5010269;28;20188;-73
2022/10/14 08:05:49;;;;;;;0.00;0.00;;;;;;;13.33;100.00;100286.38;5010330;28;20181;-74
2022/10/14 08:08:15;;;;;;;0.00;0.00;;;;;;;13.37;100.00;100281.81;5012412;28;20196;-75
2022/10/14 08:10:41;;;;;;;0.87;0.47;;;;;;;13.44;100.00;100286.75;5015015;28;20177;-74
2022/10/14 08:13:06;;;;;;;8.23;0.97;;;;;;;13.51;100.00;100292.53;5013578;28;20682;-74
2022/10/14 08:15:37;;;;;;;0.00;0.00;;;;;;;13.53;100.00;100284.78;5013295;28;20172;-73
2022/10/14 08:18:06;;;;;;;0.00;0.00;;;;;;;13.59;100.00;100283.41;5012929;28;20176;-73
2022/10/14 08:20:33;;;;;;;0.00;0.00;;;;;;;13.53;100.00;100285.56;5016908;28;20212;-74
2022/10/14 08:22:59;;;;;;;0.00;0.00;;;;;;;13.61;100.00;100292.94;5012994;28;20203;-74
2022/10/14 08:25:24;;;;;;;0.00;0.00;;;;;;;13.54;100.00;100284.44;5024252;28;20171;-73
2022/10/14 08:27:50;;;;;;;0.00;0.00;;;;;;;13.57;100.00;100278.25;5033261;28;20180;-74
2022/10/14 08:30:16;;;;;;;0.93;0.93;;;;;;;13.57;100.00;100275.50;5033405;28;20183;-74
2022/10/14 08:32:41;;;;;;;0.27;0.27;;;;;;;13.63;100.00;100268.69;5033467;28;20172;-74
2022/10/14 08:35:07;;;;;;;0.07;0.07;;;;;;;13.62;100.00;100272.59;5033691;28;20172;-74
2022/10/14 08:37:33;;;;;;;0.00;0.00;;;;;;;13.60;100.00;100274.06;5033283;28;20172;-74
2022/10/14 08:39:58;;;;;;;0.60;0.60;;;;;;;13.57;100.00;100261.00;5033231;28;20322;-74
2022/10/14 08:42:53;;;;;;;1.97;1.47;;;;;;;13.59;100.00;100259.50;5033204;28;20192;-74
2022/10/14 08:45:31;;;;;;;2.03;1.93;;;;;;;13.64;100.00;100267.56;5033177;28;20183;-74
2022/10/14 08:48:00;;;;;;;0.73;0.50;;;;;;;13.68;100.00;100259.44;5032166;28;20180;-74
2022/10/14 08:50:48;;;;;;;0.17;0.17;;;;;;;13.77;100.00;100251.94;5021408;28;20192;-74
2022/10/14 08:53:31;;;;;;;0.60;0.60;;;;;;;13.85;100.00;100251.03;5013360;28;20230;-74
2022/10/14 08:55:59;;;;;;;0.00;0.00;;;;;;;13.95;100.00;100252.56;5013047;28;20251;-73
2022/10/14 08:58:45;;;;;;;0.27;0.27;;;;;;;14.07;100.00;100246.31;5012865;28;20296;-73
2022/10/14 09:01:30;;;;;;;0.00;0.00;;;;;;;14.25;100.00;100254.03;5012757;28;20311;-74
2022/10/14 09:04:00;;;;;;;1.33;1.23;;;;;;;14.41;97.47;100248.66;5012529;28;20192;-73
2022/10/14 09:06:31;;;;;;;1.30;1.20;;;;;;;14.55;96.26;100251.91;5012699;28;20180;-73
2022/10/14 09:09:05;;;;;;;0.00;0.00;;;;;;;14.58;94.97;100242.19;5013949;28;20372;-72
2022/10/14 09:11:38;;;;;;;0.53;0.50;;;;;;;14.52;94.09;100232.56;5011806;28;20179;-72
2022/10/14 09:14:07;;;;;;;0.97;0.93;;;;;;;14.39;93.57;100236.41;5012965;28;20168;-73
2022/10/14 09:16:36;;;;;;;0.30;0.30;;;;;;;14.35;94.03;100243.75;5013005;28;20179;-72
2022/10/14 09:19:31;;;;;;;0.17;0.17;;;;;;;14.27;94.36;100237.19;5012650;28;20204;-72
2022/10/14 09:21:59;;;;;;;0.70;0.70;;;;;;;14.30;95.19;100244.75;4999658;28;20267;-73
2022/10/14 09:24:27;;;;;;;0.30;0.20;;;;;;;14.29;95.07;100254.13;5012442;28;20782;-73
2022/10/14 09:26:57;;;;;;;1.83;1.33;;;;;;;14.35;95.06;100244.53;5012597;28;20263;-73
2022/10/14 09:29:28;;;;;;;0.77;0.77;;;;;;;14.38;94.57;100243.06;5013916;28;20189;-73
2022/10/14 09:32:00;;;;;;;4.37;2.00;;;;;;;14.40;94.12;100251.75;5012255;28;20259;-73
2022/10/14 09:34:37;;;;;;;0.00;0.00;;;;;;;14.41;93.82;100250.63;5012430;28;20567;-72
2022/10/14 09:37:26;;;;;;;0.03;0.03;;;;;;;14.43;93.52;100245.56;4992666;28;20200;-73
2022/10/14 09:39:55;;;;;;;0.10;0.10;;;;;;;14.45;93.29;100237.81;4975268;28;20205;-73
2022/10/14 09:42:25;;;;;;;0.60;0.60;;;;;;;14.51;93.21;100239.22;4992768;28;20655;-73
2022/10/14 09:45:10;;;;;;;0.00;0.00;;;;;;;14.50;92.63;100235.66;4992794;28;20744;-73
2022/10/14 09:47:44;;;;;;;1.13;1.13;;;;;;;14.57;92.78;100232.31;4975056;28;20208;-77
2022/10/14 09:50:20;;;;;;;0.43;0.43;;;;;;;14.54;92.09;100230.28;4992631;28;20234;-73
2022/10/14 09:52:51;;;;;;;0.47;0.47;;;;;;;14.69;91.65;100235.06;5009123;28;20181;-73
2022/10/14 09:55:22;;;;;;;0.00;0.00;;;;;;;14.86;91.29;100231.28;5014360;28;20179;-73
2022/10/14 09:57:59;;;;;;;0.63;0.63;;;;;;;15.01;90.46;100221.53;5010652;28;20177;-73
2022/10/14 10:00:28;;;;;;;0.20;0.20;;;;;;;15.25;89.81;100221.47;5011674;28;20287;-73
2022/10/14 10:02:54;;;;;;;0.20;0.20;;;;;;;15.47;89.46;100218.19;5011580;28;20188;-73
2022/10/14 10:05:27;;;;;;;0.30;0.30;;;;;;;15.48;88.26;100222.56;5011286;28;20242;-73
2022/10/14 10:08:23;;;;;;;0.20;0.20;;;;;;;15.37;87.43;100218.69;5011298;28;20177;-72
2022/10/14 10:11:04;;;;;;;0.00;0.00;;;;;;;15.26;88.18;100216.78;5007871;28;20300;-71
2022/10/14 10:13:39;;;;;;;0.00;0.00;;;;;;;15.36;89.32;100208.03;5010066;28;20653;-71
2022/10/14 10:16:06;;;;;;;0.50;0.50;;;;;;;15.46;89.23;100208.31;4993893;28;20237;-71
2022/10/14 10:18:31;;;;;;;0.70;0.47;;;;;;;15.48;88.11;100208.81;5011141;28;20176;-71
2022/10/14 10:21:05;;;;;;;0.27;0.27;;;;;;;15.47;87.14;100209.13;5011094;28;20561;-71
2022/10/14 10:23:33;;;;;;;0.00;0.00;;;;;;;15.39;87.26;100194.38;5009381;28;20270;-71
2022/10/14 10:26:14;;;;;;;0.00;0.00;;;;;;;15.44;87.23;100196.88;5012033;28;20184;-71
2022/10/14 10:28:44;;;;;;;0.87;0.87;;;;;;;15.61;86.17;100190.28;5010811;28;20235;-71
2022/10/14 10:31:34;;;;;;;0.00;0.00;;;;;;;15.52;84.93;100175.06;5011091;28;20204;-71
2022/10/14 10:34:27;;;;;;;0.40;0.40;;;;;;;15.49;85.98;100179.31;5011481;28;20233;-71
2022/10/14 10:36:59;;;;;;;0.43;0.43;;;;;;;15.45;86.39;100178.38;5010606;28;20176;-71
2022/10/14 10:40:07;;;;;;;0.17;0.17;;;;;;;15.45;86.77;100173.69;5011041;28;20201;-71
2022/10/14 10:42:39;;;;;;;0.03;0.03;;;;;;;15.43;86.01;100172.44;5010910;28;20181;-72
2022/10/14 10:45:23;;;;;;;0.00;0.00;;;;;;;15.53;87.33;100165.63;5011043;28;20183;-71
2022/10/14 10:48:02;;;;;;;0.00;0.00;;;;;;;15.65;87.04;100158.16;5010661;28;20172;-71
2022/10/14 10:50:43;;;;;;;0.50;0.50;;;;;;;15.76;86.42;100152.91;5010831;28;20184;-71
2022/10/14 10:53:36;;;;;;;0.10;0.10;;;;;;;15.63;85.83;100159.66;5010666;28;20649;-71
2022/10/14 10:56:37;;;;;;;0.00;0.00;;;;;;;15.72;86.04;100157.53;5010570;28;20629;-71
2022/10/14 10:59:48;;;;;;;0.50;0.50;;;;;;;15.72;85.44;100147.31;5010709;28;20286;-71
2022/10/14 11:02:32;;;;;;;0.03;0.03;;;;;;;15.76;85.62;100142.69;4969000;28;20634;-71
2022/10/14 11:05:16;;;;;;;0.40;0.40;;;;;;;15.81;84.95;100141.66;5010160;28;20198;-71
2022/10/14 11:13:54;;;;;;;0.10;0.10;;;;;;;16.16;84.30;100127.16;4999890;28;20187;-71
2022/10/14 11:16:28;;;;;;;0.47;0.47;;;;;;;16.13;82.97;100131.44;5010281;28;20176;-70
2022/10/14 11:19:09;;;;;;;0.77;0.77;;;;;;;15.94;82.74;100134.09;5010420;28;20179;-73
2022/10/14 11:21:53;;;;;;;0.00;0.00;;;;;;;15.92;82.81;100117.94;5010479;28;20177;-73
2022/10/14 11:24:57;;;;;;;0.20;0.20;;;;;;;16.05;83.33;100124.13;5010653;28;20458;-73
2022/10/14 11:27:26;;;;;;;0.00;0.00;;;;;;;16.06;82.88;100121.03;5010183;28;20172;-73
2022/10/14 11:30:18;;;;;;;0.17;0.17;;;;;;;16.06;82.82;100115.53;5025591;28;20620;-73
2022/10/14 11:33:13;;;;;;;0.20;0.20;;;;;;;16.10;82.40;100106.53;5009714;28;20180;-73
2022/10/14 11:36:02;;;;;;;0.00;0.00;;;;;;;16.18;81.66;100100.81;5010148;28;20175;-73
2022/10/14 11:38:48;;;;;;;0.00;0.00;;;;;;;16.23;81.30;100097.03;5006523;28;20172;-73